sensor_id;sensor_type;location;lat;lon;timestamp;P1;durP1;ratioP1;P2;durP2;ratioP2
9424;SDS011;17139;52.140;11.636;2023-03-31T00:01:41;1.92;;;1.60;;
9424;SDS011;17139;52.140;11.636;2023-03-31T00:04:08;1.40;;;1.30;;
9424;SDS011;17139;52.140;11.636;2023-03-31T00:06:38;2.83;;;1.10;;
9424;SDS011;17139;52.140;11.636;2023-03-31T00:09:07;1.17;;;1.10;;
9424;SDS011;17139;52.140;11.636;2023-03-31T00:11:36;1.17;;;1.17;;
9424;SDS011;17139;52.140;11.636;2023-03-31T00:14:03;2.13;;;1.30;;
9424;SDS011;17139;52.140;11.636;2023-03-31T00:16:33;1.77;;;1.20;;
9424;SDS011;17139;52.140;11.636;2023-03-31T00:19:00;2.07;;;1.03;;
9424;SDS011;17139;52.140;11.636;2023-03-31T00:21:28;0.97;;;0.97;;
9424;SDS011;17139;52.140;11.636;2023-03-31T00:23:59;1.23;;;1.10;;
9424;SDS011;17139;52.140;11.636;2023-03-31T00:26:27;3.07;;;1.20;;
9424;SDS011;17139;52.140;11.636;2023-03-31T00:28:55;1.80;;;1.37;;
9424;SDS011;17139;52.140;11.636;2023-03-31T00:31:24;2.00;;;1.40;;
9424;SDS011;17139;52.140;11.636;2023-03-31T00:33:53;2.60;;;1.20;;
9424;SDS011;17139;52.140;11.636;2023-03-31T00:36:21;1.53;;;1.20;;
9424;SDS011;17139;52.140;11.636;2023-03-31T00:38:52;1.10;;;1.10;;
9424;SDS011;17139;52.140;11.636;2023-03-31T00:41:20;2.43;;;1.00;;
9424;SDS011;17139;52.140;11.636;2023-03-31T00:44:00;0.90;;;0.90;;
9424;SDS011;17139;52.140;11.636;2023-03-31T00:46:32;4.97;;;1.33;;
9424;SDS011;17139;52.140;11.636;2023-03-31T00:49:05;3.23;;;1.00;;
9424;SDS011;17139;52.140;11.636;2023-03-31T00:51:38;1.07;;;1.07;;
9424;SDS011;17139;52.140;11.636;2023-03-31T00:54:05;2.73;;;0.83;;
9424;SDS011;17139;52.140;11.636;2023-03-31T00:56:33;1.57;;;1.20;;
9424;SDS011;17139;52.140;11.636;2023-03-31T00:59:05;2.67;;;1.10;;
9424;SDS011;17139;52.140;11.636;2023-03-31T01:01:35;1.30;;;1.13;;
9424;SDS011;17139;52.140;11.636;2023-03-31T01:04:08;1.33;;;1.30;;
9424;SDS011;17139;52.140;11.636;2023-03-31T01:06:39;1.00;;;1.00;;
9424;SDS011;17139;52.140;11.636;2023-03-31T01:09:14;1.13;;;1.13;;
9424;SDS011;17139;52.140;11.636;2023-03-31T01:11:42;2.57;;;0.83;;
9424;SDS011;17139;52.140;11.636;2023-03-31T01:14:11;1.83;;;1.17;;
9424;SDS011;17139;52.140;11.636;2023-03-31T01:16:38;1.17;;;1.07;;
9424;SDS011;17139;52.140;11.636;2023-03-31T01:19:08;1.27;;;1.17;;
9424;SDS011;17139;52.140;11.636;2023-03-31T01:21:50;0.83;;;0.83;;
9424;SDS011;17139;52.140;11.636;2023-03-31T01:27:45;0.87;;;0.80;;
9424;SDS011;17139;52.140;11.636;2023-03-31T01:30:36;2.93;;;1.00;;
9424;SDS011;17139;52.140;11.636;2023-03-31T01:33:44;1.03;;;1.00;;
9424;SDS011;17139;52.140;11.636;2023-03-31T01:39:52;0.70;;;0.70;;
9424;SDS011;17139;52.140;11.636;2023-03-31T01:42:35;1.40;;;1.20;;
9424;SDS011;17139;52.140;11.636;2023-03-31T01:45:07;3.60;;;1.03;;
9424;SDS011;17139;52.140;11.636;2023-03-31T01:47:43;1.60;;;1.27;;
9424;SDS011;17139;52.140;11.636;2023-03-31T01:50:16;4.43;;;0.97;;
9424;SDS011;17139;52.140;11.636;2023-03-31T01:52:51;1.20;;;1.10;;
9424;SDS011;17139;52.140;11.636;2023-03-31T01:55:25;0.87;;;0.87;;
9424;SDS011;17139;52.140;11.636;2023-03-31T01:57:58;3.37;;;1.13;;
9424;SDS011;17139;52.140;11.636;2023-03-31T02:00:29;0.77;;;0.77;;
9424;SDS011;17139;52.140;11.636;2023-03-31T02:02:59;0.90;;;0.90;;
9424;SDS011;17139;52.140;11.636;2023-03-31T02:05:36;0.87;;;0.87;;
9424;SDS011;17139;52.140;11.636;2023-03-31T02:08:09;1.03;;;1.03;;
9424;SDS011;17139;52.140;11.636;2023-03-31T02:10:41;0.87;;;0.83;;
9424;SDS011;17139;52.140;11.636;2023-03-31T02:13:10;1.80;;;1.00;;
9424;SDS011;17139;52.140;11.636;2023-03-31T02:15:40;1.40;;;1.30;;
9424;SDS011;17139;52.140;11.636;2023-03-31T02:18:12;0.90;;;0.60;;
9424;SDS011;17139;52.140;11.636;2023-03-31T02:20:43;1.52;;;1.30;;
9424;SDS011;17139;52.140;11.636;2023-03-31T02:23:15;2.35;;;1.20;;
9424;SDS011;17139;52.140;11.636;2023-03-31T02:25:52;1.47;;;0.97;;
9424;SDS011;17139;52.140;11.636;2023-03-31T02:28:23;0.77;;;0.77;;
9424;SDS011;17139;52.140;11.636;2023-03-31T02:30:57;0.93;;;0.87;;
9424;SDS011;17139;52.140;11.636;2023-03-31T02:33:38;0.90;;;0.90;;
9424;SDS011;17139;52.140;11.636;2023-03-31T02:36:05;0.80;;;0.77;;
9424;SDS011;17139;52.140;11.636;2023-03-31T02:38:34;0.90;;;0.90;;
9424;SDS011;17139;52.140;11.636;2023-03-31T02:41:06;0.73;;;0.73;;
9424;SDS011;17139;52.140;11.636;2023-03-31T02:43:33;2.20;;;1.20;;
9424;SDS011;17139;52.140;11.636;2023-03-31T02:46:00;0.83;;;0.83;;
9424;SDS011;17139;52.140;11.636;2023-03-31T02:48:28;4.30;;;0.90;;
9424;SDS011;17139;52.140;11.636;2023-03-31T02:53:59;0.80;;;0.80;;
9424;SDS011;17139;52.140;11.636;2023-03-31T02:56:50;1.67;;;0.90;;
9424;SDS011;17139;52.140;11.636;2023-03-31T02:59:32;2.57;;;1.07;;
9424;SDS011;17139;52.140;11.636;2023-03-31T03:02:10;1.50;;;1.07;;
9424;SDS011;17139;52.140;11.636;2023-03-31T03:04:55;2.03;;;1.03;;
9424;SDS011;17139;52.140;11.636;2023-03-31T03:07:35;1.93;;;0.93;;
9424;SDS011;17139;52.140;11.636;2023-03-31T03:10:08;0.97;;;0.83;;
9424;SDS011;17139;52.140;11.636;2023-03-31T03:12:41;8.43;;;1.10;;
9424;SDS011;17139;52.140;11.636;2023-03-31T03:15:15;0.83;;;0.83;;
9424;SDS011;17139;52.140;11.636;2023-03-31T03:17:46;1.00;;;1.00;;
9424;SDS011;17139;52.140;11.636;2023-03-31T03:20:15;3.40;;;0.90;;
9424;SDS011;17139;52.140;11.636;2023-03-31T03:22:46;3.03;;;1.00;;
9424;SDS011;17139;52.140;11.636;2023-03-31T03:25:14;1.33;;;1.10;;
9424;SDS011;17139;52.140;11.636;2023-03-31T03:27:43;0.73;;;0.73;;
9424;SDS011;17139;52.140;11.636;2023-03-31T03:30:11;1.33;;;1.20;;
9424;SDS011;17139;52.140;11.636;2023-03-31T03:32:39;1.40;;;1.30;;
9424;SDS011;17139;52.140;11.636;2023-03-31T03:35:07;1.57;;;1.47;;
9424;SDS011;17139;52.140;11.636;2023-03-31T03:37:35;3.40;;;1.07;;
9424;SDS011;17139;52.140;11.636;2023-03-31T03:40:03;2.63;;;1.23;;
9424;SDS011;17139;52.140;11.636;2023-03-31T03:42:31;0.90;;;0.90;;
9424;SDS011;17139;52.140;11.636;2023-03-31T03:45:00;2.53;;;0.97;;
9424;SDS011;17139;52.140;11.636;2023-03-31T03:47:28;0.83;;;0.83;;
9424;SDS011;17139;52.140;11.636;2023-03-31T03:49:55;5.03;;;1.10;;
9424;SDS011;17139;52.140;11.636;2023-03-31T03:52:22;1.10;;;1.10;;
9424;SDS011;17139;52.140;11.636;2023-03-31T03:54:49;1.40;;;0.80;;
9424;SDS011;17139;52.140;11.636;2023-03-31T03:57:16;1.33;;;1.00;;
9424;SDS011;17139;52.140;11.636;2023-03-31T03:59:43;2.57;;;1.20;;
9424;SDS011;17139;52.140;11.636;2023-03-31T04:02:11;1.52;;;1.33;;
9424;SDS011;17139;52.140;11.636;2023-03-31T04:04:39;4.68;;;1.80;;
9424;SDS011;17139;52.140;11.636;2023-03-31T04:07:06;3.30;;;1.30;;
9424;SDS011;17139;52.140;11.636;2023-03-31T04:09:33;1.30;;;1.20;;
9424;SDS011;17139;52.140;11.636;2023-03-31T04:12:00;1.77;;;1.00;;
9424;SDS011;17139;52.140;11.636;2023-03-31T04:14:27;1.30;;;1.30;;
9424;SDS011;17139;52.140;11.636;2023-03-31T04:16:54;1.77;;;1.30;;
9424;SDS011;17139;52.140;11.636;2023-03-31T04:19:24;1.30;;;1.10;;
9424;SDS011;17139;52.140;11.636;2023-03-31T04:21:51;2.37;;;1.10;;
9424;SDS011;17139;52.140;11.636;2023-03-31T04:24:23;0.80;;;0.80;;
9424;SDS011;17139;52.140;11.636;2023-03-31T04:26:54;5.00;;;1.10;;
9424;SDS011;17139;52.140;11.636;2023-03-31T04:29:22;2.15;;;1.52;;
9424;SDS011;17139;52.140;11.636;2023-03-31T04:31:50;1.27;;;1.20;;
9424;SDS011;17139;52.140;11.636;2023-03-31T04:34:18;3.20;;;1.20;;
9424;SDS011;17139;52.140;11.636;2023-03-31T04:36:47;2.28;;;1.40;;
9424;SDS011;17139;52.140;11.636;2023-03-31T04:39:15;1.92;;;1.55;;
9424;SDS011;17139;52.140;11.636;2023-03-31T04:41:51;1.57;;;1.20;;
9424;SDS011;17139;52.140;11.636;2023-03-31T04:44:18;2.20;;;1.20;;
9424;SDS011;17139;52.140;11.636;2023-03-31T04:46:45;5.40;;;1.53;;
9424;SDS011;17139;52.140;11.636;2023-03-31T04:49:12;2.20;;;1.40;;
9424;SDS011;17139;52.140;11.636;2023-03-31T04:51:40;0.83;;;0.83;;
9424;SDS011;17139;52.140;11.636;2023-03-31T04:54:08;0.70;;;0.70;;
9424;SDS011;17139;52.140;11.636;2023-03-31T04:56:35;1.00;;;1.00;;
9424;SDS011;17139;52.140;11.636;2023-03-31T04:59:02;1.50;;;0.90;;
9424;SDS011;17139;52.140;11.636;2023-03-31T05:01:30;2.30;;;1.47;;
9424;SDS011;17139;52.140;11.636;2023-03-31T05:04:00;1.17;;;1.17;;
9424;SDS011;17139;52.140;11.636;2023-03-31T05:06:27;1.60;;;1.50;;
9424;SDS011;17139;52.140;11.636;2023-03-31T05:08:55;3.40;;;1.40;;
9424;SDS011;17139;52.140;11.636;2023-03-31T05:11:23;5.53;;;1.63;;
9424;SDS011;17139;52.140;11.636;2023-03-31T05:13:51;7.10;;;1.43;;
9424;SDS011;17139;52.140;11.636;2023-03-31T05:16:18;3.17;;;1.47;;
9424;SDS011;17139;52.140;11.636;2023-03-31T05:18:45;2.00;;;1.80;;
9424;SDS011;17139;52.140;11.636;2023-03-31T05:21:13;1.63;;;1.50;;
9424;SDS011;17139;52.140;11.636;2023-03-31T05:23:41;2.00;;;1.37;;
9424;SDS011;17139;52.140;11.636;2023-03-31T05:26:10;1.10;;;1.10;;
9424;SDS011;17139;52.140;11.636;2023-03-31T05:28:39;2.30;;;1.20;;
9424;SDS011;17139;52.140;11.636;2023-03-31T05:31:06;5.20;;;1.58;;
9424;SDS011;17139;52.140;11.636;2023-03-31T05:33:35;3.93;;;1.50;;
9424;SDS011;17139;52.140;11.636;2023-03-31T05:36:05;1.83;;;1.37;;
9424;SDS011;17139;52.140;11.636;2023-03-31T05:38:33;6.90;;;2.10;;
9424;SDS011;17139;52.140;11.636;2023-03-31T05:41:00;4.97;;;1.50;;
9424;SDS011;17139;52.140;11.636;2023-03-31T05:43:27;5.83;;;1.37;;
9424;SDS011;17139;52.140;11.636;2023-03-31T05:45:56;1.93;;;1.70;;
9424;SDS011;17139;52.140;11.636;2023-03-31T05:48:23;1.70;;;1.47;;
9424;SDS011;17139;52.140;11.636;2023-03-31T05:50:50;1.47;;;1.37;;
9424;SDS011;17139;52.140;11.636;2023-03-31T05:53:17;3.60;;;2.10;;
9424;SDS011;17139;52.140;11.636;2023-03-31T05:55:44;1.90;;;1.77;;
9424;SDS011;17139;52.140;11.636;2023-03-31T05:58:11;10.10;;;2.20;;
9424;SDS011;17139;52.140;11.636;2023-03-31T06:00:38;7.90;;;2.83;;
9424;SDS011;17139;52.140;11.636;2023-03-31T06:03:06;16.80;;;2.47;;
9424;SDS011;17139;52.140;11.636;2023-03-31T06:05:33;4.07;;;2.00;;
9424;SDS011;17139;52.140;11.636;2023-03-31T06:08:00;6.53;;;2.65;;
9424;SDS011;17139;52.140;11.636;2023-03-31T06:10:28;6.63;;;2.23;;
9424;SDS011;17139;52.140;11.636;2023-03-31T06:12:55;8.90;;;2.23;;
9424;SDS011;17139;52.140;11.636;2023-03-31T06:15:22;2.73;;;1.70;;
9424;SDS011;17139;52.140;11.636;2023-03-31T06:17:49;7.60;;;1.37;;
9424;SDS011;17139;52.140;11.636;2023-03-31T06:20:18;1.83;;;1.73;;
9424;SDS011;17139;52.140;11.636;2023-03-31T06:22:45;2.93;;;1.80;;
9424;SDS011;17139;52.140;11.636;2023-03-31T06:25:12;5.03;;;1.60;;
9424;SDS011;17139;52.140;11.636;2023-03-31T06:27:39;2.00;;;1.70;;
9424;SDS011;17139;52.140;11.636;2023-03-31T06:30:07;9.30;;;1.40;;
9424;SDS011;17139;52.140;11.636;2023-03-31T06:32:34;1.00;;;1.00;;
9424;SDS011;17139;52.140;11.636;2023-03-31T06:35:01;2.80;;;1.27;;
9424;SDS011;17139;52.140;11.636;2023-03-31T06:37:30;1.03;;;1.00;;
9424;SDS011;17139;52.140;11.636;2023-03-31T06:39:57;4.07;;;1.13;;
9424;SDS011;17139;52.140;11.636;2023-03-31T06:42:24;3.22;;;1.60;;
9424;SDS011;17139;52.140;11.636;2023-03-31T06:44:51;1.20;;;1.20;;
9424;SDS011;17139;52.140;11.636;2023-03-31T06:47:19;3.97;;;1.40;;
9424;SDS011;17139;52.140;11.636;2023-03-31T06:49:46;1.13;;;1.00;;
9424;SDS011;17139;52.140;11.636;2023-03-31T06:52:13;3.30;;;1.07;;
9424;SDS011;17139;52.140;11.636;2023-03-31T06:54:42;1.20;;;1.20;;
9424;SDS011;17139;52.140;11.636;2023-03-31T06:57:09;1.30;;;1.23;;
9424;SDS011;17139;52.140;11.636;2023-03-31T06:59:36;1.27;;;1.27;;
9424;SDS011;17139;52.140;11.636;2023-03-31T07:02:03;3.93;;;1.23;;
9424;SDS011;17139;52.140;11.636;2023-03-31T07:04:30;6.87;;;1.37;;
9424;SDS011;17139;52.140;11.636;2023-03-31T07:06:57;2.47;;;1.47;;
9424;SDS011;17139;52.140;11.636;2023-03-31T07:09:25;2.97;;;1.60;;
9424;SDS011;17139;52.140;11.636;2023-03-31T07:11:54;2.17;;;1.33;;
9424;SDS011;17139;52.140;11.636;2023-03-31T07:14:21;1.80;;;1.70;;
9424;SDS011;17139;52.140;11.636;2023-03-31T07:16:48;3.47;;;1.40;;
9424;SDS011;17139;52.140;11.636;2023-03-31T07:19:15;2.10;;;0.97;;
9424;SDS011;17139;52.140;11.636;2023-03-31T07:21:43;3.20;;;1.73;;
9424;SDS011;17139;52.140;11.636;2023-03-31T07:24:10;1.40;;;1.30;;
9424;SDS011;17139;52.140;11.636;2023-03-31T07:26:37;1.38;;;1.30;;
9424;SDS011;17139;52.140;11.636;2023-03-31T07:29:06;1.50;;;1.40;;
9424;SDS011;17139;52.140;11.636;2023-03-31T07:31:33;1.57;;;1.47;;
9424;SDS011;17139;52.140;11.636;2023-03-31T07:34:00;0.93;;;0.93;;
9424;SDS011;17139;52.140;11.636;2023-03-31T07:36:28;1.20;;;1.20;;
9424;SDS011;17139;52.140;11.636;2023-03-31T07:38:55;2.47;;;1.55;;
9424;SDS011;17139;52.140;11.636;2023-03-31T07:41:23;5.75;;;2.05;;
9424;SDS011;17139;52.140;11.636;2023-03-31T07:43:50;1.42;;;1.23;;
9424;SDS011;17139;52.140;11.636;2023-03-31T07:46:19;1.85;;;1.50;;
9424;SDS011;17139;52.140;11.636;2023-03-31T07:48:48;2.60;;;1.35;;
9424;SDS011;17139;52.140;11.636;2023-03-31T07:51:17;3.60;;;2.05;;
9424;SDS011;17139;52.140;11.636;2023-03-31T07:53:45;2.95;;;1.50;;
9424;SDS011;17139;52.140;11.636;2023-03-31T07:56:13;1.55;;;1.55;;
9424;SDS011;17139;52.140;11.636;2023-03-31T07:58:41;1.92;;;1.10;;
9424;SDS011;17139;52.140;11.636;2023-03-31T08:01:09;1.98;;;1.58;;
9424;SDS011;17139;52.140;11.636;2023-03-31T08:03:42;1.20;;;1.20;;
9424;SDS011;17139;52.140;11.636;2023-03-31T08:06:09;2.50;;;1.08;;
9424;SDS011;17139;52.140;11.636;2023-03-31T08:08:36;2.35;;;0.98;;
9424;SDS011;17139;52.140;11.636;2023-03-31T08:11:07;1.52;;;1.42;;
9424;SDS011;17139;52.140;11.636;2023-03-31T08:13:34;1.27;;;1.27;;
9424;SDS011;17139;52.140;11.636;2023-03-31T08:16:01;2.40;;;0.93;;
9424;SDS011;17139;52.140;11.636;2023-03-31T08:18:29;0.90;;;0.90;;
9424;SDS011;17139;52.140;11.636;2023-03-31T08:20:57;1.17;;;1.02;;
9424;SDS011;17139;52.140;11.636;2023-03-31T08:23:24;1.23;;;1.10;;
9424;SDS011;17139;52.140;11.636;2023-03-31T08:25:51;1.38;;;1.27;;
9424;SDS011;17139;52.140;11.636;2023-03-31T08:28:18;2.25;;;1.05;;
9424;SDS011;17139;52.140;11.636;2023-03-31T08:30:45;1.17;;;1.17;;
9424;SDS011;17139;52.140;11.636;2023-03-31T08:33:14;1.35;;;1.30;;
9424;SDS011;17139;52.140;11.636;2023-03-31T08:35:43;3.38;;;1.73;;
9424;SDS011;17139;52.140;11.636;2023-03-31T08:38:11;1.40;;;1.30;;
9424;SDS011;17139;52.140;11.636;2023-03-31T08:40:42;1.13;;;1.13;;
9424;SDS011;17139;52.140;11.636;2023-03-31T08:43:10;1.92;;;1.60;;
9424;SDS011;17139;52.140;11.636;2023-03-31T08:45:43;1.15;;;1.10;;
9424;SDS011;17139;52.140;11.636;2023-03-31T08:48:16;6.65;;;1.67;;
9424;SDS011;17139;52.140;11.636;2023-03-31T08:50:50;5.15;;;1.20;;
9424;SDS011;17139;52.140;11.636;2023-03-31T08:53:23;1.95;;;1.05;;
9424;SDS011;17139;52.140;11.636;2023-03-31T08:55:53;2.28;;;1.08;;
9424;SDS011;17139;52.140;11.636;2023-03-31T08:58:27;1.70;;;1.30;;
9424;SDS011;17139;52.140;11.636;2023-03-31T09:01:03;1.38;;;1.15;;
9424;SDS011;17139;52.140;11.636;2023-03-31T09:03:42;3.15;;;1.25;;
9424;SDS011;17139;52.140;11.636;2023-03-31T09:06:23;3.08;;;1.40;;
9424;SDS011;17139;52.140;11.636;2023-03-31T09:08:59;1.20;;;1.10;;
9424;SDS011;17139;52.140;11.636;2023-03-31T09:11:29;2.47;;;1.50;;
9424;SDS011;17139;52.140;11.636;2023-03-31T09:16:48;1.83;;;1.67;;
9424;SDS011;17139;52.140;11.636;2023-03-31T09:19:20;2.15;;;1.58;;
9424;SDS011;17139;52.140;11.636;2023-03-31T09:21:56;1.25;;;1.20;;
9424;SDS011;17139;52.140;11.636;2023-03-31T09:24:28;4.20;;;1.48;;
9424;SDS011;17139;52.140;11.636;2023-03-31T09:26:59;2.00;;;1.55;;
9424;SDS011;17139;52.140;11.636;2023-03-31T09:29:28;1.00;;;0.93;;
9424;SDS011;17139;52.140;11.636;2023-03-31T09:32:00;1.83;;;1.00;;
9424;SDS011;17139;52.140;11.636;2023-03-31T09:34:28;1.13;;;1.13;;
9424;SDS011;17139;52.140;11.636;2023-03-31T09:36:57;2.83;;;1.65;;
9424;SDS011;17139;52.140;11.636;2023-03-31T09:39:24;1.88;;;1.60;;
9424;SDS011;17139;52.140;11.636;2023-03-31T09:41:53;2.92;;;1.30;;
9424;SDS011;17139;52.140;11.636;2023-03-31T09:44:22;1.30;;;1.15;;
9424;SDS011;17139;52.140;11.636;2023-03-31T09:46:52;3.28;;;1.20;;
9424;SDS011;17139;52.140;11.636;2023-03-31T09:49:21;1.70;;;1.60;;
9424;SDS011;17139;52.140;11.636;2023-03-31T09:51:56;17.73;;;1.70;;
9424;SDS011;17139;52.140;11.636;2023-03-31T09:54:27;1.30;;;1.20;;
9424;SDS011;17139;52.140;11.636;2023-03-31T09:57:21;5.15;;;1.20;;
9424;SDS011;17139;52.140;11.636;2023-03-31T09:59:50;3.03;;;1.52;;
9424;SDS011;17139;52.140;11.636;2023-03-31T10:02:26;2.08;;;1.33;;
9424;SDS011;17139;52.140;11.636;2023-03-31T10:04:59;3.13;;;1.50;;
9424;SDS011;17139;52.140;11.636;2023-03-31T10:07:27;1.25;;;1.25;;
9424;SDS011;17139;52.140;11.636;2023-03-31T10:09:54;1.00;;;1.00;;
9424;SDS011;17139;52.140;11.636;2023-03-31T10:12:24;0.90;;;0.90;;
9424;SDS011;17139;52.140;11.636;2023-03-31T10:14:53;1.65;;;1.40;;
9424;SDS011;17139;52.140;11.636;2023-03-31T10:17:38;3.47;;;1.52;;
9424;SDS011;17139;52.140;11.636;2023-03-31T10:20:16;4.60;;;1.85;;
9424;SDS011;17139;52.140;11.636;2023-03-31T10:22:46;1.60;;;1.50;;
9424;SDS011;17139;52.140;11.636;2023-03-31T10:25:14;5.30;;;1.40;;
9424;SDS011;17139;52.140;11.636;2023-03-31T10:27:44;5.10;;;1.52;;
9424;SDS011;17139;52.140;11.636;2023-03-31T10:30:17;2.83;;;1.33;;
9424;SDS011;17139;52.140;11.636;2023-03-31T10:32:48;1.40;;;1.30;;
9424;SDS011;17139;52.140;11.636;2023-03-31T10:35:20;1.33;;;1.23;;
9424;SDS011;17139;52.140;11.636;2023-03-31T10:37:55;1.90;;;1.30;;
9424;SDS011;17139;52.140;11.636;2023-03-31T10:40:25;1.27;;;1.17;;
9424;SDS011;17139;52.140;11.636;2023-03-31T10:43:00;1.52;;;1.30;;
9424;SDS011;17139;52.140;11.636;2023-03-31T10:45:35;1.60;;;1.35;;
9424;SDS011;17139;52.140;11.636;2023-03-31T10:48:03;2.03;;;1.13;;
9424;SDS011;17139;52.140;11.636;2023-03-31T10:50:32;1.47;;;1.37;;
9424;SDS011;17139;52.140;11.636;2023-03-31T10:53:02;1.60;;;1.50;;
9424;SDS011;17139;52.140;11.636;2023-03-31T10:55:32;2.17;;;1.13;;
9424;SDS011;17139;52.140;11.636;2023-03-31T10:58:07;1.67;;;1.33;;
9424;SDS011;17139;52.140;11.636;2023-03-31T11:00:47;1.10;;;1.00;;
9424;SDS011;17139;52.140;11.636;2023-03-31T11:03:34;0.88;;;0.88;;
9424;SDS011;17139;52.140;11.636;2023-03-31T11:06:21;0.77;;;0.77;;
9424;SDS011;17139;52.140;11.636;2023-03-31T11:08:55;3.50;;;1.17;;
9424;SDS011;17139;52.140;11.636;2023-03-31T11:14:26;3.53;;;1.23;;
9424;SDS011;17139;52.140;11.636;2023-03-31T11:17:02;0.80;;;0.80;;
9424;SDS011;17139;52.140;11.636;2023-03-31T11:19:37;2.50;;;0.80;;
9424;SDS011;17139;52.140;11.636;2023-03-31T11:22:11;1.10;;;1.10;;
9424;SDS011;17139;52.140;11.636;2023-03-31T11:24:53;0.70;;;0.70;;
9424;SDS011;17139;52.140;11.636;2023-03-31T11:27:42;3.17;;;1.27;;
9424;SDS011;17139;52.140;11.636;2023-03-31T11:30:25;0.75;;;0.75;;
9424;SDS011;17139;52.140;11.636;2023-03-31T11:33:01;3.20;;;1.00;;
9424;SDS011;17139;52.140;11.636;2023-03-31T11:35:46;0.55;;;0.55;;
9424;SDS011;17139;52.140;11.636;2023-03-31T11:38:30;0.90;;;0.90;;
9424;SDS011;17139;52.140;11.636;2023-03-31T11:41:10;0.77;;;0.77;;
9424;SDS011;17139;52.140;11.636;2023-03-31T11:43:41;0.85;;;0.85;;
9424;SDS011;17139;52.140;11.636;2023-03-31T11:46:14;0.70;;;0.70;;
9424;SDS011;17139;52.140;11.636;2023-03-31T11:48:46;0.60;;;0.60;;
9424;SDS011;17139;52.140;11.636;2023-03-31T11:51:23;0.70;;;0.70;;
9424;SDS011;17139;52.140;11.636;2023-03-31T11:53:52;0.70;;;0.70;;
9424;SDS011;17139;52.140;11.636;2023-03-31T11:56:22;0.80;;;0.80;;
9424;SDS011;17139;52.140;11.636;2023-03-31T11:58:56;1.00;;;1.00;;
9424;SDS011;17139;52.140;11.636;2023-03-31T12:01:28;2.15;;;0.60;;
9424;SDS011;17139;52.140;11.636;2023-03-31T12:04:03;0.90;;;0.90;;
9424;SDS011;17139;52.140;11.636;2023-03-31T12:06:36;1.25;;;0.98;;
9424;SDS011;17139;52.140;11.636;2023-03-31T12:09:10;0.70;;;0.70;;
9424;SDS011;17139;52.140;11.636;2023-03-31T12:11:42;0.93;;;0.70;;
9424;SDS011;17139;52.140;11.636;2023-03-31T12:14:26;1.15;;;0.80;;
9424;SDS011;17139;52.140;11.636;2023-03-31T12:17:01;0.83;;;0.83;;
9424;SDS011;17139;52.140;11.636;2023-03-31T12:19:35;0.65;;;0.65;;
9424;SDS011;17139;52.140;11.636;2023-03-31T12:22:12;0.90;;;0.90;;
9424;SDS011;17139;52.140;11.636;2023-03-31T12:24:43;1.10;;;0.98;;
9424;SDS011;17139;52.140;11.636;2023-03-31T12:27:12;1.60;;;0.90;;
9424;SDS011;17139;52.140;11.636;2023-03-31T12:29:44;0.85;;;0.70;;
9424;SDS011;17139;52.140;11.636;2023-03-31T12:32:18;0.60;;;0.60;;
9424;SDS011;17139;52.140;11.636;2023-03-31T12:34:50;0.65;;;0.65;;
9424;SDS011;17139;52.140;11.636;2023-03-31T12:40:28;0.82;;;0.73;;
9424;SDS011;17139;52.140;11.636;2023-03-31T12:43:08;0.70;;;0.70;;
9424;SDS011;17139;52.140;11.636;2023-03-31T12:45:47;4.20;;;0.68;;
9424;SDS011;17139;52.140;11.636;2023-03-31T12:48:27;1.85;;;0.65;;
9424;SDS011;17139;52.140;11.636;2023-03-31T12:51:24;0.97;;;0.93;;
9424;SDS011;17139;52.140;11.636;2023-03-31T12:54:18;0.80;;;0.80;;
9424;SDS011;17139;52.140;11.636;2023-03-31T12:57:02;0.70;;;0.70;;
9424;SDS011;17139;52.140;11.636;2023-03-31T12:59:41;1.30;;;0.70;;
9424;SDS011;17139;52.140;11.636;2023-03-31T13:02:16;0.77;;;0.77;;
9424;SDS011;17139;52.140;11.636;2023-03-31T13:04:49;0.70;;;0.70;;
9424;SDS011;17139;52.140;11.636;2023-03-31T13:07:36;0.98;;;0.90;;
9424;SDS011;17139;52.140;11.636;2023-03-31T13:12:57;0.80;;;0.80;;
9424;SDS011;17139;52.140;11.636;2023-03-31T13:15:28;0.98;;;0.65;;
9424;SDS011;17139;52.140;11.636;2023-03-31T13:17:57;0.85;;;0.85;;
9424;SDS011;17139;52.140;11.636;2023-03-31T13:20:29;0.70;;;0.60;;
9424;SDS011;17139;52.140;11.636;2023-03-31T13:23:03;0.50;;;0.50;;
9424;SDS011;17139;52.140;11.636;2023-03-31T13:25:49;0.70;;;0.70;;
9424;SDS011;17139;52.140;11.636;2023-03-31T13:31:09;1.75;;;1.00;;
9424;SDS011;17139;52.140;11.636;2023-03-31T13:33:39;0.70;;;0.70;;
9424;SDS011;17139;52.140;11.636;2023-03-31T13:36:24;0.88;;;0.88;;
9424;SDS011;17139;52.140;11.636;2023-03-31T13:45:22;1.27;;;1.20;;
9424;SDS011;17139;52.140;11.636;2023-03-31T13:48:13;0.93;;;0.93;;
9424;SDS011;17139;52.140;11.636;2023-03-31T13:50:49;0.70;;;0.70;;
9424;SDS011;17139;52.140;11.636;2023-03-31T13:53:34;1.30;;;1.30;;
9424;SDS011;17139;52.140;11.636;2023-03-31T13:56:24;1.20;;;1.20;;
9424;SDS011;17139;52.140;11.636;2023-03-31T14:02:12;1.43;;;1.30;;
9424;SDS011;17139;52.140;11.636;2023-03-31T14:04:58;1.20;;;1.20;;
9424;SDS011;17139;52.140;11.636;2023-03-31T14:07:43;0.90;;;0.90;;
9424;SDS011;17139;52.140;11.636;2023-03-31T14:10:25;0.90;;;0.90;;
9424;SDS011;17139;52.140;11.636;2023-03-31T14:13:03;0.88;;;0.85;;
9424;SDS011;17139;52.140;11.636;2023-03-31T14:15:35;0.75;;;0.75;;
9424;SDS011;17139;52.140;11.636;2023-03-31T14:18:04;0.77;;;0.77;;
9424;SDS011;17139;52.140;11.636;2023-03-31T14:20:34;1.00;;;0.88;;
9424;SDS011;17139;52.140;11.636;2023-03-31T14:23:25;1.10;;;1.10;;
9424;SDS011;17139;52.140;11.636;2023-03-31T14:26:03;0.80;;;0.80;;
9424;SDS011;17139;52.140;11.636;2023-03-31T14:28:46;1.00;;;1.00;;
9424;SDS011;17139;52.140;11.636;2023-03-31T14:31:25;1.17;;;1.10;;
9424;SDS011;17139;52.140;11.636;2023-03-31T14:34:09;1.00;;;1.00;;
9424;SDS011;17139;52.140;11.636;2023-03-31T14:36:51;0.68;;;0.68;;
9424;SDS011;17139;52.140;11.636;2023-03-31T14:39:24;1.27;;;1.05;;
9424;SDS011;17139;52.140;11.636;2023-03-31T14:41:57;0.90;;;0.90;;
9424;SDS011;17139;52.140;11.636;2023-03-31T14:44:26;0.80;;;0.80;;
9424;SDS011;17139;52.140;11.636;2023-03-31T14:46:55;0.68;;;0.68;;
9424;SDS011;17139;52.140;11.636;2023-03-31T14:49:24;0.85;;;0.85;;
9424;SDS011;17139;52.140;11.636;2023-03-31T14:51:53;0.70;;;0.70;;
9424;SDS011;17139;52.140;11.636;2023-03-31T14:54:24;0.70;;;0.70;;
9424;SDS011;17139;52.140;11.636;2023-03-31T14:56:52;0.98;;;0.98;;
9424;SDS011;17139;52.140;11.636;2023-03-31T14:59:23;1.02;;;1.02;;
9424;SDS011;17139;52.140;11.636;2023-03-31T15:01:53;1.15;;;0.93;;
9424;SDS011;17139;52.140;11.636;2023-03-31T15:04:24;2.90;;;0.97;;
9424;SDS011;17139;52.140;11.636;2023-03-31T15:06:52;1.08;;;0.80;;
9424;SDS011;17139;52.140;11.636;2023-03-31T15:09:20;1.30;;;1.30;;
9424;SDS011;17139;52.140;11.636;2023-03-31T15:11:52;1.15;;;0.82;;
9424;SDS011;17139;52.140;11.636;2023-03-31T15:14:23;0.80;;;0.80;;
9424;SDS011;17139;52.140;11.636;2023-03-31T15:16:55;0.80;;;0.80;;
9424;SDS011;17139;52.140;11.636;2023-03-31T15:19:23;4.30;;;0.90;;
9424;SDS011;17139;52.140;11.636;2023-03-31T15:21:53;3.30;;;0.98;;
9424;SDS011;17139;52.140;11.636;2023-03-31T15:24:21;0.70;;;0.70;;
9424;SDS011;17139;52.140;11.636;2023-03-31T15:26:51;1.13;;;1.13;;
9424;SDS011;17139;52.140;11.636;2023-03-31T15:29:24;0.90;;;0.90;;
9424;SDS011;17139;52.140;11.636;2023-03-31T15:31:55;1.35;;;1.25;;
9424;SDS011;17139;52.140;11.636;2023-03-31T15:34:24;1.30;;;1.30;;
9424;SDS011;17139;52.140;11.636;2023-03-31T15:36:57;1.15;;;1.13;;
9424;SDS011;17139;52.140;11.636;2023-03-31T15:39:26;1.90;;;1.50;;
9424;SDS011;17139;52.140;11.636;2023-03-31T15:41:56;2.30;;;1.13;;
9424;SDS011;17139;52.140;11.636;2023-03-31T15:44:29;1.25;;;1.25;;
9424;SDS011;17139;52.140;11.636;2023-03-31T15:47:05;3.30;;;1.10;;
9424;SDS011;17139;52.140;11.636;2023-03-31T15:49:37;1.08;;;1.08;;